createdAt,value
2018-06-29T00:00:24.131Z,21.5
2018-06-29T00:01:44.579Z,21.6
2018-06-29T00:02:49.735Z,21.5
2018-06-29T00:03:55.187Z,21.6
2018-06-29T00:05:00.377Z,21.5
2018-06-29T00:06:04.701Z,21.5
2018-06-29T00:07:10.144Z,21.5
2018-06-29T00:08:15.308Z,21.5
2018-06-29T00:09:20.499Z,21.5
2018-06-29T00:10:25.881Z,21.5
2018-06-29T00:11:31.363Z,21.5
2018-06-29T00:12:36.950Z,21.5
2018-06-29T00:13:42.213Z,21.5
2018-06-29T00:14:47.783Z,21.6
2018-06-29T00:15:53.476Z,21.5
2018-06-29T00:16:58.945Z,21.5
2018-06-29T00:18:04.102Z,21.5
2018-06-29T00:19:09.519Z,21.5
2018-06-29T00:20:14.681Z,21.5
2018-06-29T00:21:19.272Z,21.5
2018-06-29T00:22:24.713Z,21.5
2018-06-29T00:23:29.570Z,21.5
2018-06-29T00:24:34.975Z,21.5
2018-06-29T00:25:40.426Z,21.5
2018-06-29T00:26:45.580Z,21.5
2018-06-29T00:27:51.286Z,21.6
2018-06-29T00:28:56.447Z,21.6
2018-06-29T00:30:01.618Z,21.5
2018-06-29T00:31:06.785Z,21.5
2018-06-29T00:32:11.941Z,21.5
2018-06-29T00:33:17.423Z,21.5
2018-06-29T00:34:23.157Z,21.5
2018-06-29T00:35:28.092Z,21.5
2018-06-29T00:36:33.702Z,21.5
2018-06-29T00:37:38.020Z,21.5
2018-06-29T00:38:42.672Z,21.5
2018-06-29T00:39:48.101Z,21.5
2018-06-29T00:40:53.610Z,21.5
2018-06-29T00:41:58.938Z,21.5
2018-06-29T00:43:04.771Z,21.5
2018-06-29T00:44:10.232Z,21.5
2018-06-29T00:45:15.411Z,21.5
2018-06-29T00:46:20.812Z,21.5
2018-06-29T00:47:25.708Z,21.5
2018-06-29T00:48:31.004Z,21.5
2018-06-29T00:49:36.194Z,21.5
2018-06-29T00:50:40.951Z,21.5
2018-06-29T00:51:46.514Z,21.5
2018-06-29T00:52:51.680Z,21.5
2018-06-29T00:53:56.333Z,21.5
2018-06-29T00:55:01.473Z,21.5
2018-06-29T00:56:06.072Z,21.5
2018-06-29T00:57:11.512Z,21.5
2018-06-29T00:58:17.252Z,21.5
2018-06-29T00:59:22.708Z,21.5
2018-06-29T01:00:27.718Z,21.5
2018-06-29T01:01:33.198Z,21.5
2018-06-29T01:02:38.367Z,21.5
2018-06-29T01:03:44.220Z,21.5
2018-06-29T01:04:49.401Z,21.5
2018-06-29T01:05:54.852Z,21.5
2018-06-29T01:07:00.555Z,21.5
2018-06-29T01:08:05.439Z,21.5
2018-06-29T01:09:10.724Z,21.5
2018-06-29T01:10:16.464Z,21.5
2018-06-29T01:11:21.362Z,21.5
2018-06-29T01:12:27.458Z,21.5
2018-06-29T01:13:32.066Z,21.5
2018-06-29T01:14:36.963Z,21.5
2018-06-29T01:15:42.839Z,21.5
2018-06-29T01:16:47.994Z,21.5
2018-06-29T01:17:53.158Z,21.5
2018-06-29T01:18:58.886Z,21.5
2018-06-29T01:20:04.053Z,21.5
2018-06-29T01:21:09.523Z,21.5
2018-06-29T01:22:15.203Z,21.5
2018-06-29T01:23:20.369Z,21.5
2018-06-29T01:24:26.328Z,21.5
2018-06-29T01:25:31.485Z,21.5
2018-06-29T01:26:36.650Z,21.5
2018-06-29T01:27:42.074Z,21.5
2018-06-29T01:28:46.954Z,21.6
2018-06-29T01:29:52.393Z,21.5
2018-06-29T01:30:57.820Z,21.5
2018-06-29T01:32:02.697Z,21.5
2018-06-29T01:33:07.329Z,21.5
2018-06-29T01:34:12.807Z,21.6
2018-06-29T01:35:17.709Z,21.5
2018-06-29T01:36:23.166Z,21.5
2018-06-29T01:37:28.845Z,21.5
2018-06-29T01:38:33.721Z,21.5
2018-06-29T01:39:39.014Z,21.5
2018-06-29T01:40:43.606Z,21.6
2018-06-29T01:41:48.798Z,21.5
2018-06-29T01:42:54.659Z,21.5
2018-06-29T01:44:00.100Z,21.5
2018-06-29T01:45:04.416Z,21.5
2018-06-29T01:46:09.569Z,21.5
2018-06-29T01:47:14.724Z,21.5
2018-06-29T01:48:20.183Z,21.5
2018-06-29T01:49:26.413Z,21.5
2018-06-29T01:50:31.289Z,21.5
2018-06-29T01:51:37.095Z,21.6
2018-06-29T01:52:42.079Z,21.6
2018-06-29T01:53:47.284Z,21.6
2018-06-29T01:54:52.977Z,21.6
2018-06-29T01:55:58.490Z,21.6
2018-06-29T01:57:03.687Z,21.6
2018-06-29T01:58:08.821Z,21.6
2018-06-29T01:59:13.917Z,21.5
2018-06-29T02:00:19.100Z,21.6
2018-06-29T02:01:24.273Z,21.6
2018-06-29T02:02:29.440Z,21.6
2018-06-29T02:03:35.144Z,21.6
2018-06-29T02:04:40.596Z,21.5
2018-06-29T02:05:46.042Z,21.5
2018-06-29T02:06:51.738Z,21.5
2018-06-29T02:07:57.216Z,21.5
2018-06-29T02:09:02.811Z,21.5
2018-06-29T02:10:07.675Z,21.5
2018-06-29T02:11:12.845Z,21.5
2018-06-29T02:12:17.357Z,21.5
2018-06-29T02:13:22.774Z,21.5
2018-06-29T02:14:27.939Z,21.5
2018-06-29T02:15:32.927Z,21.6
2018-06-29T02:16:37.805Z,21.5
2018-06-29T02:17:43.262Z,21.6
2018-06-29T02:18:49.107Z,21.6
2018-06-29T02:19:54.597Z,21.6
2018-06-29T02:20:58.914Z,21.6
2018-06-29T02:22:04.721Z,21.5
2018-06-29T02:23:09.330Z,21.5
2018-06-29T02:24:14.785Z,21.5
2018-06-29T02:25:20.470Z,21.5
2018-06-29T02:26:25.913Z,21.5
2018-06-29T02:27:31.710Z,21.5
2018-06-29T02:28:37.267Z,21.6
2018-06-29T02:29:42.441Z,21.6
2018-06-29T02:30:48.050Z,21.6
2018-06-29T02:31:54.490Z,21.5
2018-06-29T02:32:59.360Z,21.6
2018-06-29T02:34:04.785Z,21.5
2018-06-29T02:35:10.235Z,21.5
2018-06-29T02:36:15.396Z,21.6
2018-06-29T02:37:20.350Z,21.6
2018-06-29T02:38:25.789Z,21.6
2018-06-29T02:39:31.300Z,21.5
2018-06-29T02:40:36.456Z,21.5
2018-06-29T02:41:41.069Z,21.5
2018-06-29T02:42:46.503Z,21.5
2018-06-29T02:43:51.949Z,21.5
2018-06-29T02:44:57.119Z,21.6
2018-06-29T02:46:02.624Z,21.6
2018-06-29T02:47:07.512Z,21.6
2018-06-29T02:48:12.965Z,21.5
2018-06-29T02:49:18.432Z,21.5
2018-06-29T02:50:23.584Z,21.5
2018-06-29T02:51:29.241Z,21.5
2018-06-29T02:52:34.127Z,21.6
2018-06-29T02:53:39.020Z,21.5
2018-06-29T02:54:44.818Z,21.5
2018-06-29T02:55:50.274Z,21.5
2018-06-29T02:56:55.162Z,21.5
2018-06-29T02:58:00.738Z,21.6
2018-06-29T02:59:06.177Z,21.6
2018-06-29T03:00:11.346Z,21.5
2018-06-29T03:01:16.922Z,21.5
2018-06-29T03:02:22.360Z,21.5
2018-06-29T03:03:27.983Z,21.6
2018-06-29T03:04:33.435Z,21.5
2018-06-29T03:05:38.598Z,21.5
2018-06-29T03:06:43.303Z,21.5
2018-06-29T03:07:48.745Z,21.5
2018-06-29T03:08:53.910Z,21.5
2018-06-29T03:09:59.703Z,21.5
2018-06-29T03:11:05.208Z,21.5
2018-06-29T03:12:10.373Z,21.5
2018-06-29T03:13:15.327Z,21.5
2018-06-29T03:14:20.771Z,21.5
2018-06-29T03:15:26.823Z,21.5
2018-06-29T03:16:31.999Z,21.5
2018-06-29T03:17:36.916Z,21.5
2018-06-29T03:18:41.911Z,21.5
2018-06-29T03:19:47.370Z,21.5
2018-06-29T03:20:52.234Z,21.5
2018-06-29T03:21:57.645Z,21.5
2018-06-29T03:23:02.801Z,21.5
2018-06-29T03:24:07.956Z,21.5
2018-06-29T03:25:13.439Z,21.5
2018-06-29T03:26:19.503Z,21.5
2018-06-29T03:27:25.400Z,21.5
2018-06-29T03:28:31.497Z,21.5
2018-06-29T03:29:36.939Z,21.5
2018-06-29T03:30:42.501Z,21.5
2018-06-29T03:31:47.136Z,21.5
2018-06-29T03:32:52.294Z,21.5
2018-06-29T03:33:57.766Z,21.5
2018-06-29T03:35:03.056Z,21.5
2018-06-29T03:36:08.224Z,21.5
2018-06-29T03:37:13.931Z,21.5
2018-06-29T03:38:18.797Z,21.5
2018-06-29T03:39:23.982Z,21.5
2018-06-29T03:40:43.829Z,21.5
2018-06-29T03:41:48.995Z,21.5
2018-06-29T03:42:54.700Z,21.5
2018-06-29T03:43:59.849Z,21.5
2018-06-29T03:45:04.729Z,21.5
2018-06-29T03:46:10.441Z,21.5
2018-06-29T03:47:15.316Z,21.5
2018-06-29T03:48:20.199Z,21.5
2018-06-29T03:49:25.407Z,21.5
2018-06-29T03:50:30.847Z,21.5
2018-06-29T03:51:35.775Z,21.5
2018-06-29T03:52:40.966Z,21.5
2018-06-29T03:53:46.409Z,21.5
2018-06-29T03:54:52.153Z,21.5
2018-06-29T03:55:57.337Z,21.5
2018-06-29T03:57:01.991Z,21.5
2018-06-29T03:58:06.823Z,21.5
2018-06-29T03:59:12.021Z,21.5
2018-06-29T04:00:17.467Z,21.5
2018-06-29T04:01:22.463Z,21.5
2018-06-29T04:02:27.043Z,21.5
2018-06-29T04:03:32.819Z,21.5
2018-06-29T04:04:37.993Z,21.5
2018-06-29T04:05:43.444Z,21.5
2018-06-29T04:06:49.157Z,21.5
2018-06-29T04:07:54.304Z,21.5
2018-06-29T04:08:59.498Z,21.5
2018-06-29T04:10:04.943Z,21.5
2018-06-29T04:11:09.829Z,21.5
2018-06-29T04:12:15.273Z,21.5
2018-06-29T04:13:20.785Z,21.5
2018-06-29T04:14:25.964Z,21.5
2018-06-29T04:15:31.588Z,21.5
2018-06-29T04:16:36.774Z,21.5
2018-06-29T04:17:41.931Z,21.5
2018-06-29T04:18:47.442Z,21.5
2018-06-29T04:19:52.614Z,21.5
2018-06-29T04:20:57.497Z,21.5
2018-06-29T04:22:03.008Z,21.5
2018-06-29T04:23:08.170Z,21.5
2018-06-29T04:24:13.343Z,21.5
2018-06-29T04:25:19.028Z,21.5
2018-06-29T04:26:23.911Z,21.5
2018-06-29T04:27:29.783Z,21.5
2018-06-29T04:28:34.649Z,21.5
2018-06-29T04:29:39.844Z,21.5
2018-06-29T04:30:45.283Z,21.5
2018-06-29T04:31:50.164Z,21.5
2018-06-29T04:32:55.328Z,21.5
2018-06-29T04:34:00.900Z,21.5
2018-06-29T04:35:06.069Z,21.5
2018-06-29T04:36:11.512Z,21.5
2018-06-29T04:37:16.687Z,21.5
2018-06-29T04:38:21.861Z,21.5
2018-06-29T04:39:27.226Z,21.5
2018-06-29T04:40:32.671Z,21.5
2018-06-29T04:41:37.830Z,21.5
2018-06-29T04:42:43.234Z,21.5
2018-06-29T04:43:48.777Z,21.5
2018-06-29T04:44:53.982Z,21.5
2018-06-29T04:45:59.409Z,21.5
2018-06-29T04:47:04.280Z,21.5
2018-06-29T04:48:09.445Z,21.5
2018-06-29T04:49:14.670Z,21.5
2018-06-29T04:50:20.252Z,21.5
2018-06-29T04:51:26.342Z,21.5
2018-06-29T04:52:31.515Z,21.6
2018-06-29T04:53:36.710Z,21.6
2018-06-29T04:54:42.414Z,21.6
2018-06-29T04:55:47.581Z,21.5
2018-06-29T04:56:52.515Z,21.5
2018-06-29T04:57:57.946Z,21.5
2018-06-29T04:59:03.105Z,21.6
2018-06-29T05:00:07.700Z,21.6
2018-06-29T05:01:13.547Z,21.6
2018-06-29T05:02:18.712Z,21.6
2018-06-29T05:03:23.308Z,21.6
2018-06-29T05:04:28.649Z,21.5
2018-06-29T05:05:34.098Z,21.6
2018-06-29T05:06:38.934Z,21.5
2018-06-29T05:07:44.129Z,21.5
2018-06-29T05:08:49.012Z,21.6
2018-06-29T05:09:54.849Z,21.6
2018-06-29T05:10:59.736Z,21.6
2018-06-29T05:12:04.624Z,21.6
2018-06-29T05:13:09.751Z,21.6
2018-06-29T05:14:15.194Z,21.6
2018-06-29T05:15:20.346Z,21.6
2018-06-29T05:16:40.870Z,21.6
2018-06-29T05:17:46.317Z,21.6
2018-06-29T05:18:51.443Z,21.6
2018-06-29T05:19:56.620Z,21.6
2018-06-29T05:21:01.214Z,21.6
2018-06-29T05:22:05.767Z,21.6
2018-06-29T05:23:10.660Z,21.6
2018-06-29T05:24:15.576Z,21.6
2018-06-29T05:25:21.284Z,21.6
2018-06-29T05:26:26.176Z,21.6
2018-06-29T05:27:31.792Z,21.6
2018-06-29T05:28:37.067Z,21.6
2018-06-29T05:29:42.701Z,21.6
2018-06-29T05:30:48.402Z,21.6
2018-06-29T05:31:53.280Z,21.6
2018-06-29T05:32:58.727Z,21.6
2018-06-29T05:34:03.862Z,21.6
2018-06-29T05:35:09.028Z,21.6
2018-06-29T05:36:13.917Z,21.6
2018-06-29T05:37:18.762Z,21.6
2018-06-29T05:38:23.917Z,21.6
2018-06-29T05:39:29.337Z,21.6
2018-06-29T05:40:34.500Z,21.6
2018-06-29T05:41:39.958Z,21.6
2018-06-29T05:42:46.061Z,21.6
2018-06-29T05:43:51.936Z,21.7
2018-06-29T05:44:57.077Z,21.7
2018-06-29T05:46:02.528Z,21.7
2018-06-29T05:47:07.682Z,21.7
2018-06-29T05:48:13.136Z,21.7
2018-06-29T05:49:18.587Z,21.7
2018-06-29T05:50:24.371Z,21.7
2018-06-29T05:51:29.682Z,21.7
2018-06-29T05:52:34.588Z,21.7
2018-06-29T05:53:39.745Z,21.7
2018-06-29T05:54:44.694Z,21.7
2018-06-29T05:55:50.140Z,21.7
2018-06-29T05:56:55.038Z,21.7
2018-06-29T05:58:00.779Z,21.7
2018-06-29T05:59:05.554Z,21.7
2018-06-29T06:00:10.713Z,21.7
2018-06-29T06:01:15.973Z,21.7
2018-06-29T06:02:20.863Z,21.7
2018-06-29T06:03:26.927Z,21.7
2018-06-29T06:04:32.125Z,21.7
2018-06-29T06:05:37.361Z,21.7
2018-06-29T06:06:42.781Z,21.7
2018-06-29T06:07:47.956Z,21.7
2018-06-29T06:08:53.410Z,21.7
2018-06-29T06:09:59.124Z,21.7
2018-06-29T06:11:04.171Z,21.7
2018-06-29T06:12:09.543Z,21.7
2018-06-29T06:13:15.085Z,21.7
2018-06-29T06:14:20.291Z,21.7
2018-06-29T06:15:24.611Z,21.7
2018-06-29T06:16:30.837Z,21.7
2018-06-29T06:17:36.274Z,21.7
2018-06-29T06:18:42.076Z,21.7
2018-06-29T06:19:47.252Z,21.8
2018-06-29T06:20:52.141Z,21.8
2018-06-29T06:21:58.047Z,21.8
2018-06-29T06:23:03.735Z,21.8
2018-06-29T06:24:08.886Z,21.8
2018-06-29T06:25:14.320Z,21.8
2018-06-29T06:26:19.751Z,21.8
2018-06-29T06:27:25.436Z,21.8
2018-06-29T06:28:30.997Z,21.8
2018-06-29T06:29:36.451Z,21.8
2018-06-29T06:30:42.242Z,21.8
2018-06-29T06:31:47.394Z,21.8
2018-06-29T06:32:52.838Z,21.8
2018-06-29T06:33:58.678Z,21.8
2018-06-29T06:35:02.728Z,21.8
2018-06-29T06:36:07.318Z,21.8
2018-06-29T06:37:12.737Z,21.8
2018-06-29T06:38:17.605Z,21.8
2018-06-29T06:39:22.807Z,21.8
2018-06-29T06:40:28.193Z,21.8
2018-06-29T06:41:33.371Z,21.8
2018-06-29T06:42:38.943Z,21.8
2018-06-29T06:43:44.409Z,21.8
2018-06-29T06:44:49.285Z,21.9
2018-06-29T06:45:54.988Z,21.8
2018-06-29T06:47:00.193Z,21.8
2018-06-29T06:48:05.580Z,21.8
2018-06-29T06:49:10.716Z,21.8
2018-06-29T06:50:15.886Z,21.9
2018-06-29T06:51:21.051Z,21.8
2018-06-29T06:52:27.036Z,21.8
2018-06-29T06:53:32.316Z,21.8
2018-06-29T06:54:37.053Z,21.9
2018-06-29T06:55:42.228Z,21.9
2018-06-29T06:56:47.384Z,21.8
2018-06-29T06:57:52.987Z,21.8
2018-06-29T06:58:58.457Z,21.9
2018-06-29T07:00:03.579Z,21.9
2018-06-29T07:01:08.140Z,21.9
2018-06-29T07:02:13.588Z,21.8
2018-06-29T07:03:18.763Z,21.8
2018-06-29T07:04:24.482Z,21.9
2018-06-29T07:05:28.805Z,21.9
2018-06-29T07:06:34.573Z,21.9
2018-06-29T07:07:39.747Z,21.9
2018-06-29T07:08:44.913Z,21.9
2018-06-29T07:09:50.628Z,21.9
2018-06-29T07:10:56.078Z,21.9
2018-06-29T07:12:01.253Z,21.9
2018-06-29T07:13:05.684Z,21.9
2018-06-29T07:14:11.046Z,21.9
2018-06-29T07:15:16.230Z,21.9
2018-06-29T07:16:20.941Z,21.9
2018-06-29T07:17:26.253Z,21.9
2018-06-29T07:18:32.074Z,21.9
2018-06-29T07:19:37.243Z,21.9
2018-06-29T07:20:42.128Z,21.9
2018-06-29T07:21:47.651Z,21.9
2018-06-29T07:22:52.526Z,21.9
2018-06-29T07:23:57.707Z,21.9
2018-06-29T07:25:02.609Z,21.9
2018-06-29T07:26:07.781Z,21.9
2018-06-29T07:27:13.222Z,21.9
2018-06-29T07:28:18.941Z,21.9
2018-06-29T07:29:23.826Z,22
2018-06-29T07:30:29.224Z,21.9
2018-06-29T07:31:34.396Z,21.9
2018-06-29T07:32:39.846Z,21.9
2018-06-29T07:33:45.282Z,21.9
2018-06-29T07:34:50.728Z,22
2018-06-29T07:35:56.173Z,22
2018-06-29T07:37:01.449Z,21.9
2018-06-29T07:38:06.076Z,21.9
2018-06-29T07:39:10.965Z,22
2018-06-29T07:40:16.394Z,21.9
2018-06-29T07:41:21.564Z,22
2018-06-29T07:42:26.983Z,21.9
2018-06-29T07:43:32.142Z,21.9
2018-06-29T07:44:37.306Z,21.9
2018-06-29T07:45:42.825Z,21.9
2018-06-29T07:46:48.273Z,21.9
2018-06-29T07:47:53.437Z,21.9
2018-06-29T07:48:58.863Z,22
2018-06-29T07:50:04.030Z,22
2018-06-29T07:51:09.197Z,22
2018-06-29T07:52:15.199Z,22
2018-06-29T07:53:20.077Z,22
2018-06-29T07:54:25.259Z,22
2018-06-29T07:55:30.899Z,22
2018-06-29T07:56:36.075Z,22
2018-06-29T07:57:42.080Z,22
2018-06-29T07:58:46.791Z,22
2018-06-29T07:59:53.111Z,22
2018-06-29T08:00:58.807Z,22
2018-06-29T08:02:03.723Z,22
2018-06-29T08:03:08.636Z,22
2018-06-29T08:04:14.050Z,22
2018-06-29T08:05:18.938Z,22
2018-06-29T08:06:23.837Z,22
2018-06-29T08:07:29.223Z,22.1
2018-06-29T08:08:34.680Z,22
2018-06-29T08:09:40.195Z,22.1
2018-06-29T08:10:45.669Z,22.1
2018-06-29T08:11:50.285Z,22.1
2018-06-29T08:12:55.814Z,22.1
2018-06-29T08:14:00.980Z,22.1
2018-06-29T08:15:05.593Z,22
2018-06-29T08:16:11.012Z,22.1
2018-06-29T08:17:16.472Z,22.1
2018-06-29T08:18:21.629Z,22.1
2018-06-29T08:19:27.175Z,22.1
2018-06-29T08:20:32.621Z,22
2018-06-29T08:21:38.147Z,22.1
2018-06-29T08:22:43.308Z,22
2018-06-29T08:23:48.477Z,22.1
2018-06-29T08:24:53.876Z,22.1
2018-06-29T08:25:59.039Z,22.1
2018-06-29T08:27:03.342Z,22.1
2018-06-29T08:28:08.486Z,22.1
2018-06-29T08:29:13.857Z,22.1
2018-06-29T08:30:19.311Z,22.1
2018-06-29T08:31:24.318Z,22.1
2018-06-29T08:32:29.764Z,22.1
2018-06-29T08:33:34.939Z,22.1
2018-06-29T08:34:40.385Z,22.1
2018-06-29T08:35:45.540Z,22.2
2018-06-29T08:36:50.691Z,22.2
2018-06-29T08:37:55.569Z,22.1
2018-06-29T08:39:00.747Z,22.2
2018-06-29T08:40:06.298Z,22.2
2018-06-29T08:41:11.649Z,22.1
2018-06-29T08:42:17.093Z,22.2
2018-06-29T08:43:22.786Z,22.2
2018-06-29T08:44:28.155Z,22.2
2018-06-29T08:45:33.661Z,22.2
2018-06-29T08:46:38.544Z,22.2
2018-06-29T08:47:43.938Z,22.2
2018-06-29T08:48:49.053Z,22.2
2018-06-29T08:49:54.242Z,22.2
2018-06-29T08:50:59.695Z,22.3
2018-06-29T08:52:04.665Z,22.2
2018-06-29T08:53:10.265Z,22.2
2018-06-29T08:54:16.047Z,22.2
2018-06-29T08:55:21.830Z,22.2
2018-06-29T08:56:26.996Z,22.2
2018-06-29T08:57:32.400Z,22.2
2018-06-29T08:58:37.855Z,22.2
2018-06-29T08:59:43.294Z,22.2
2018-06-29T09:00:48.436Z,22.2
2018-06-29T09:01:53.887Z,22.2
2018-06-29T09:02:58.789Z,22.2
2018-06-29T09:04:04.232Z,22.2
2018-06-29T09:05:08.854Z,22.2
2018-06-29T09:06:13.740Z,22.2
2018-06-29T09:07:19.540Z,22.3
2018-06-29T09:08:24.712Z,22.2
2018-06-29T09:09:30.706Z,22.2
2018-06-29T09:10:36.149Z,22.2
2018-06-29T09:11:41.595Z,22.2
2018-06-29T09:12:47.512Z,22.3
2018-06-29T09:13:52.406Z,22.3
2018-06-29T09:14:57.567Z,22.3
2018-06-29T09:16:03.276Z,22.3
2018-06-29T09:17:08.715Z,22.3
2018-06-29T09:18:13.883Z,22.3
2018-06-29T09:19:19.606Z,22.3
2018-06-29T09:20:24.762Z,22.3
2018-06-29T09:21:30.063Z,22.3
2018-06-29T09:22:34.959Z,22.3
2018-06-29T09:23:40.397Z,22.3
2018-06-29T09:24:45.909Z,22.3
2018-06-29T09:25:51.345Z,22.3
2018-06-29T09:26:56.261Z,22.4
2018-06-29T09:28:02.380Z,22.3
2018-06-29T09:29:07.537Z,22.4
2018-06-29T09:30:12.466Z,22.3
2018-06-29T09:31:17.046Z,22.4
2018-06-29T09:32:22.497Z,22.4
2018-06-29T09:33:28.045Z,22.4
2018-06-29T09:34:33.236Z,22.4
2018-06-29T09:35:38.398Z,22.4
2018-06-29T09:36:44.093Z,22.4
2018-06-29T09:37:48.721Z,22.4
2018-06-29T09:38:54.725Z,22.4
2018-06-29T09:40:00.197Z,22.4
2018-06-29T09:41:05.088Z,22.4
2018-06-29T09:42:09.988Z,22.4
2018-06-29T09:43:15.686Z,22.4
2018-06-29T09:44:21.142Z,22.4
2018-06-29T09:45:26.424Z,22.5
2018-06-29T09:46:31.574Z,22.5
2018-06-29T09:47:37.022Z,22.5
2018-06-29T09:48:42.501Z,22.5
2018-06-29T09:49:47.958Z,22.4
2018-06-29T09:50:53.605Z,22.5
2018-06-29T09:51:59.320Z,22.5
2018-06-29T09:53:04.206Z,22.5
2018-06-29T09:54:09.382Z,22.5
2018-06-29T09:55:14.547Z,22.5
2018-06-29T09:56:19.983Z,22.5
2018-06-29T09:57:25.605Z,22.5
2018-06-29T09:58:30.490Z,22.5
2018-06-29T09:59:35.966Z,22.5
2018-06-29T10:00:41.752Z,22.5
2018-06-29T10:01:47.493Z,22.5
2018-06-29T10:02:52.387Z,22.6
2018-06-29T10:03:57.608Z,22.6
2018-06-29T10:05:03.066Z,22.6
2018-06-29T10:06:07.543Z,22.6
2018-06-29T10:07:13.237Z,22.6
2018-06-29T10:08:18.678Z,22.6
2018-06-29T10:09:23.855Z,22.6
2018-06-29T10:10:29.934Z,22.6
2018-06-29T10:11:34.815Z,22.6
2018-06-29T10:12:40.342Z,22.6
2018-06-29T10:13:45.523Z,22.6
2018-06-29T10:14:50.387Z,22.6
2018-06-29T10:15:56.147Z,22.6
2018-06-29T10:17:01.601Z,22.7
2018-06-29T10:18:06.498Z,22.7
2018-06-29T10:19:11.622Z,22.6
2018-06-29T10:20:16.596Z,22.6
2018-06-29T10:21:21.875Z,22.7
2018-06-29T10:22:27.387Z,22.6
2018-06-29T10:23:33.461Z,22.6
2018-06-29T10:24:39.173Z,22.7
2018-06-29T10:25:44.083Z,22.7
2018-06-29T10:26:49.604Z,22.7
2018-06-29T10:27:55.036Z,22.7
2018-06-29T10:29:00.014Z,22.7
2018-06-29T10:30:04.898Z,22.6
2018-06-29T10:31:09.457Z,22.6
2018-06-29T10:32:14.625Z,22.7
2018-06-29T10:33:20.273Z,22.7
2018-06-29T10:34:25.783Z,22.7
2018-06-29T10:35:30.670Z,22.7
2018-06-29T10:36:36.286Z,22.7
2018-06-29T10:37:41.021Z,22.7
2018-06-29T10:38:46.239Z,22.7
2018-06-29T10:39:51.461Z,22.7
2018-06-29T10:40:56.358Z,22.7
2018-06-29T10:42:01.538Z,22.7
2018-06-29T10:43:06.662Z,22.8
2018-06-29T10:44:11.548Z,22.8
2018-06-29T10:45:16.994Z,22.8
2018-06-29T10:46:22.148Z,22.7
2018-06-29T10:47:27.297Z,22.7
2018-06-29T10:48:33.553Z,22.8
2018-06-29T10:49:38.713Z,22.8
2018-06-29T10:50:43.316Z,22.8
2018-06-29T10:51:48.741Z,22.8
2018-06-29T10:52:53.648Z,22.8
2018-06-29T10:53:59.471Z,22.8
2018-06-29T10:55:04.892Z,22.8
2018-06-29T10:56:09.779Z,22.8
2018-06-29T10:57:14.942Z,22.8
2018-06-29T10:58:20.635Z,22.8
2018-06-29T10:59:25.798Z,22.8
2018-06-29T11:00:30.797Z,22.8
2018-06-29T11:01:35.967Z,22.8
2018-06-29T11:02:40.859Z,22.8
2018-06-29T11:03:46.276Z,22.8
2018-06-29T11:04:51.442Z,22.8
2018-06-29T11:05:56.888Z,22.8
2018-06-29T11:07:02.324Z,22.8
2018-06-29T11:08:07.807Z,22.8
2018-06-29T11:09:13.254Z,22.9
2018-06-29T11:10:19.103Z,22.9
2018-06-29T11:11:24.278Z,22.9
2018-06-29T11:12:29.115Z,22.9
2018-06-29T11:13:34.322Z,22.9
2018-06-29T11:14:39.214Z,22.9
2018-06-29T11:15:44.830Z,22.9
2018-06-29T11:16:49.696Z,22.9
2018-06-29T11:17:54.893Z,22.9
2018-06-29T11:19:00.592Z,22.9
2018-06-29T11:20:06.030Z,22.9
2018-06-29T11:21:11.636Z,22.9
2018-06-29T11:22:16.817Z,22.9
2018-06-29T11:23:22.289Z,22.9
2018-06-29T11:24:28.160Z,22.9
2018-06-29T11:25:33.317Z,23
2018-06-29T11:26:38.195Z,23
2018-06-29T11:27:43.368Z,23
2018-06-29T11:28:48.822Z,23
2018-06-29T11:29:53.994Z,23
2018-06-29T11:30:59.153Z,23
2018-06-29T11:32:04.313Z,23
2018-06-29T11:33:09.185Z,23
2018-06-29T11:34:15.179Z,23
2018-06-29T11:35:19.988Z,22.9
2018-06-29T11:37:45.096Z,23
2018-06-29T11:38:50.543Z,23
2018-06-29T11:39:56.046Z,23
2018-06-29T11:41:01.521Z,23
2018-06-29T11:42:06.135Z,23
2018-06-29T11:43:10.967Z,23
2018-06-29T11:44:16.179Z,23
2018-06-29T11:45:22.296Z,23.1
2018-06-29T11:46:28.288Z,23.1
2018-06-29T11:47:33.725Z,23.1
2018-06-29T11:48:39.457Z,23
2018-06-29T11:49:44.637Z,23.1
2018-06-29T11:50:49.529Z,23.1
2018-06-29T11:51:55.332Z,23
2018-06-29T11:53:00.484Z,23
2018-06-29T11:54:05.934Z,23.1
2018-06-29T11:55:11.446Z,23.1
2018-06-29T11:56:16.341Z,23.1
2018-06-29T11:57:21.777Z,23.1
2018-06-29T11:58:27.620Z,23.1
2018-06-29T11:59:32.818Z,23.1
2018-06-29T12:00:38.052Z,23.1
2018-06-29T12:01:43.697Z,23.1
2018-06-29T12:02:48.903Z,23.1
2018-06-29T12:03:53.754Z,23.1
2018-06-29T12:04:58.656Z,23.1
2018-06-29T12:06:03.822Z,23.1
2018-06-29T12:07:09.081Z,23.2
2018-06-29T12:08:14.201Z,23.2
2018-06-29T12:09:19.090Z,23.2
2018-06-29T12:10:24.221Z,23.2
2018-06-29T12:11:28.551Z,23.2
2018-06-29T12:12:33.500Z,23.2
2018-06-29T12:13:38.871Z,23.3
2018-06-29T12:14:44.088Z,23.3
2018-06-29T12:15:49.694Z,23.3
2018-06-29T12:16:54.852Z,23.4
2018-06-29T12:18:00.013Z,23.4
2018-06-29T12:19:05.759Z,23.4
2018-06-29T12:20:10.645Z,23.4
2018-06-29T12:21:16.091Z,23.4
2018-06-29T12:22:20.970Z,23.4
2018-06-29T12:23:26.610Z,23.4
2018-06-29T12:24:31.738Z,23.4
2018-06-29T12:25:36.769Z,23.4
2018-06-29T12:26:41.724Z,23.4
2018-06-29T12:27:46.981Z,23.4
2018-06-29T12:28:52.224Z,23.5
2018-06-29T12:29:57.419Z,23.5
2018-06-29T12:31:02.700Z,23.4
2018-06-29T12:32:07.589Z,23.5
2018-06-29T12:33:12.470Z,23.5
2018-06-29T12:34:17.076Z,23.5
2018-06-29T12:35:22.522Z,23.4
2018-06-29T12:36:27.665Z,23.5
2018-06-29T12:37:32.864Z,23.5
2018-06-29T12:38:38.032Z,23.6
2018-06-29T12:39:43.215Z,23.6
2018-06-29T12:40:48.409Z,23.6
2018-06-29T12:41:53.736Z,23.6
2018-06-29T12:42:58.323Z,23.6
2018-06-29T12:44:03.477Z,23.6
2018-06-29T12:45:08.370Z,23.6
2018-06-29T12:46:13.820Z,23.7
2018-06-29T12:47:19.019Z,23.7
2018-06-29T12:48:24.201Z,23.7
2018-06-29T12:49:30.553Z,23.7
2018-06-29T12:50:35.717Z,23.7
2018-06-29T12:51:41.616Z,23.7
2018-06-29T12:52:46.503Z,23.7
2018-06-29T12:53:51.380Z,23.7
2018-06-29T12:54:56.795Z,23.7
2018-06-29T12:56:01.972Z,23.8
2018-06-29T12:57:06.295Z,23.8
2018-06-29T12:58:11.708Z,23.8
2018-06-29T12:59:16.588Z,23.8
2018-06-29T13:00:21.181Z,23.8
2018-06-29T13:01:26.665Z,23.8
2018-06-29T13:02:31.572Z,23.7
2018-06-29T13:03:36.419Z,23.8
2018-06-29T13:04:41.294Z,23.8
2018-06-29T13:05:46.913Z,23.8
2018-06-29T13:06:52.621Z,23.7
2018-06-29T13:07:57.817Z,23.7
2018-06-29T13:09:02.994Z,23.8
2018-06-29T13:10:08.403Z,23.8
2018-06-29T13:11:13.809Z,23.7
2018-06-29T13:12:18.967Z,23.8
2018-06-29T13:13:24.465Z,23.8
2018-06-29T13:14:29.639Z,23.8
2018-06-29T13:15:35.060Z,23.8
2018-06-29T13:16:39.936Z,23.8
2018-06-29T13:17:45.095Z,23.8
2018-06-29T13:18:50.561Z,23.8
2018-06-29T13:19:55.461Z,23.9
2018-06-29T13:21:00.912Z,23.9
2018-06-29T13:22:06.439Z,23.8
2018-06-29T13:23:11.602Z,23.8
2018-06-29T13:24:17.097Z,23.8
2018-06-29T13:25:22.889Z,23.8
2018-06-29T13:26:28.059Z,23.8
2018-06-29T13:27:33.608Z,23.8
2018-06-29T13:28:39.049Z,23.9
2018-06-29T13:29:43.938Z,23.9
2018-06-29T13:30:49.555Z,23.9
2018-06-29T13:31:55.448Z,23.9
2018-06-29T13:33:00.618Z,23.9
2018-06-29T13:34:04.970Z,23.9
2018-06-29T13:35:10.138Z,23.9
2018-06-29T13:36:15.612Z,23.9
2018-06-29T13:37:20.940Z,23.9
2018-06-29T13:38:26.096Z,23.8
2018-06-29T13:39:31.800Z,23.9
2018-06-29T13:40:36.958Z,23.9
2018-06-29T13:41:41.860Z,23.9
2018-06-29T13:42:47.264Z,23.8
2018-06-29T13:43:52.152Z,23.9
2018-06-29T13:44:58.052Z,23.9
2018-06-29T13:46:03.751Z,23.9
2018-06-29T13:47:08.650Z,23.8
2018-06-29T13:48:13.824Z,23.8
2018-06-29T13:49:19.597Z,23.9
2018-06-29T13:50:24.753Z,23.8
2018-06-29T13:51:30.286Z,23.9
2018-06-29T13:52:35.199Z,23.9
2018-06-29T13:53:40.655Z,23.9
2018-06-29T13:54:45.903Z,23.9
2018-06-29T13:55:51.145Z,23.9
2018-06-29T13:56:56.590Z,23.9
2018-06-29T13:58:01.725Z,23.9
2018-06-29T13:59:06.806Z,23.9
2018-06-29T14:00:11.972Z,23.9
2018-06-29T14:01:17.391Z,23.9
2018-06-29T14:02:22.895Z,23.9
2018-06-29T14:03:28.687Z,23.9
2018-06-29T14:04:33.856Z,23.9
2018-06-29T14:05:39.013Z,23.9
2018-06-29T14:06:44.414Z,23.9
2018-06-29T14:07:49.863Z,23.9
2018-06-29T14:08:54.191Z,23.9
2018-06-29T14:09:59.668Z,23.9
2018-06-29T14:11:03.708Z,23.8
2018-06-29T14:12:08.574Z,23.9
2018-06-29T14:13:14.083Z,23.9
2018-06-29T14:14:18.990Z,23.9
2018-06-29T14:15:24.181Z,23.9
2018-06-29T14:16:44.634Z,23.9
2018-06-29T14:17:49.532Z,23.9
2018-06-29T14:18:55.129Z,23.9
2018-06-29T14:20:00.574Z,23.9
2018-06-29T14:21:05.779Z,23.9
2018-06-29T14:22:10.972Z,23.9
2018-06-29T14:23:16.124Z,23.9
2018-06-29T14:24:20.740Z,24
2018-06-29T14:25:26.495Z,23.9
2018-06-29T14:26:31.707Z,23.9
2018-06-29T14:27:36.954Z,23.9
2018-06-29T14:28:42.119Z,23.9
2018-06-29T14:29:47.562Z,23.9
2018-06-29T14:30:52.974Z,23.9
2018-06-29T14:31:58.141Z,23.9
2018-06-29T14:33:03.309Z,23.9
2018-06-29T14:34:08.768Z,23.9